Time;durP1;ratioP1;P1;durP2;ratioP2;P2;SDS_P1;SDS_P2;PMS_P1;PMS_P2;Temp;Humidity;BMP_temperature;BMP_pressure;BME280_temperature;BME280_humidity;BME280_pressure;Samples;Min_cycle;Max_cycle;Signal;HPM_P1;HPM_P2
2022/07/13 00:01:25;;;;;;;9.48;2.28;;;;;;;22.43;45.30;99141.75;4954704;29;20094;-49
2022/07/13 00:03:52;;;;;;;5.60;1.60;;;;;;;22.46;44.47;99143.13;4955975;28;20027;-49
2022/07/13 00:06:18;;;;;;;6.25;1.65;;;;;;;22.41;44.40;99143.91;4955857;28;20083;-49
2022/07/13 00:08:44;;;;;;;19.77;2.40;;;;;;;22.23;44.68;99144.38;4955822;28;20035;-49
2022/07/13 00:11:10;;;;;;;9.63;2.25;;;;;;;22.12;45.03;99147.06;4954557;29;20398;-50
2022/07/13 00:13:36;;;;;;;12.32;2.28;;;;;;;22.10;45.39;99149.19;4954512;29;20023;-49
2022/07/13 00:16:02;;;;;;;4.20;1.95;;;;;;;22.19;45.18;99143.31;4955705;28;20386;-49
2022/07/13 00:18:27;;;;;;;15.25;3.28;;;;;;;22.25;44.39;99145.75;4954419;29;20038;-50
2022/07/13 00:20:53;;;;;;;12.00;2.33;;;;;;;22.27;44.45;99148.16;4955870;28;20023;-49
2022/07/13 00:23:19;;;;;;;14.05;2.67;;;;;;;22.25;44.09;99147.63;4954323;29;20027;-49
2022/07/13 00:25:44;;;;;;;13.55;2.38;;;;;;;22.24;44.18;99151.38;4954125;29;20031;-49
2022/07/13 00:28:10;;;;;;;9.77;2.40;;;;;;;22.22;44.25;99150.81;4955532;28;20032;-49
2022/07/13 00:30:36;;;;;;;8.15;1.88;;;;;;;22.05;44.49;99148.38;4954153;29;20374;-49
2022/07/13 00:33:05;;;;;;;17.05;3.42;;;;;;;22.04;44.92;99146.78;4954074;29;20171;-48
2022/07/13 00:35:34;;;;;;;25.42;4.40;;;;;;;22.15;45.04;99148.38;4955344;28;20114;-49
2022/07/13 00:38:02;;;;;;;15.00;2.70;;;;;;;22.33;44.49;99150.59;4954905;28;20038;-49
2022/07/13 00:40:28;;;;;;;5.75;1.70;;;;;;;22.28;44.26;99155.94;4954384;28;20134;-50
2022/07/13 00:42:54;;;;;;;42.30;6.97;;;;;;;22.08;44.73;99161.22;4953941;29;20039;-49
2022/07/13 00:45:19;;;;;;;30.67;4.18;;;;;;;22.14;44.75;99154.81;4955079;29;20027;-49
2022/07/13 00:47:49;;;;;;;107.18;10.90;;;;;;;22.19;44.72;99151.34;4955114;29;20030;-48
2022/07/13 00:50:14;;;;;;;20.70;3.15;;;;;;;22.32;44.20;99156.22;4955101;29;20031;-49
2022/07/13 00:52:41;;;;;;;5.13;1.50;;;;;;;22.32;44.16;99153.53;4955036;28;20061;-49
2022/07/13 00:55:09;;;;;;;6.30;1.52;;;;;;;22.24;44.02;99156.75;4955000;28;20027;-49
2022/07/13 00:57:36;;;;;;;14.43;2.42;;;;;;;22.26;44.06;99154.59;4954928;28;20031;-47
2022/07/13 01:00:20;;;;;;;3.78;1.58;;;;;;;22.19;43.96;99154.81;4955175;28;20509;-47
2022/07/13 01:02:46;;;;;;;5.57;1.55;;;;;;;22.06;44.27;99153.47;4954899;28;20030;-47
2022/07/13 01:05:14;;;;;;;5.07;1.65;;;;;;;22.05;44.16;99159.84;4954701;28;20062;-47
2022/07/13 01:07:40;;;;;;;4.68;1.45;;;;;;;22.12;44.10;99157.75;4953600;29;20019;-47
2022/07/13 01:10:09;;;;;;;7.25;1.60;;;;;;;21.82;44.37;99157.69;4953419;29;20042;-47
2022/07/13 01:12:36;;;;;;;12.05;2.05;;;;;;;21.52;45.04;99156.50;4954700;28;20029;-49
2022/07/13 01:15:04;;;;;;;4.93;1.55;;;;;;;21.46;45.47;99150.31;4953327;29;20031;-49
2022/07/13 01:17:32;;;;;;;6.10;1.40;;;;;;;21.40;45.35;99154.00;4954620;28;20027;-49
2022/07/13 01:19:58;;;;;;;3.67;1.30;;;;;;;21.32;45.73;99154.50;4954586;28;20034;-49
2022/07/13 01:22:38;;;;;;;4.38;1.55;;;;;;;21.18;46.18;99153.34;4954553;28;20071;-49
2022/07/13 01:25:04;;;;;;;3.58;1.60;;;;;;;20.91;46.61;99154.25;4954463;28;20031;-49
2022/07/13 01:27:34;;;;;;;5.43;1.85;;;;;;;20.78;46.89;99162.69;4953175;29;20027;-49
2022/07/13 01:29:59;;;;;;;6.72;1.48;;;;;;;20.60;47.27;99156.69;4954379;28;20027;-49
2022/07/13 01:32:25;;;;;;;2.72;1.23;;;;;;;20.31;47.93;99153.47;4954353;28;20030;-50
2022/07/13 01:34:50;;;;;;;2.75;1.55;;;;;;;20.03;48.57;99151.88;4953023;29;20482;-50
2022/07/13 01:37:16;;;;;;;4.10;1.40;;;;;;;20.03;48.91;99142.00;4952966;29;20024;-49
2022/07/13 01:39:42;;;;;;;2.15;1.25;;;;;;;20.22;48.58;99144.31;4952966;29;20023;-49
2022/07/13 01:42:07;;;;;;;5.45;1.60;;;;;;;20.31;48.39;99143.63;4952730;29;20421;-49
2022/07/13 01:44:34;;;;;;;1.30;1.10;;;;;;;20.27;48.43;99147.03;4952782;29;20047;-49
2022/07/13 01:47:08;;;;;;;1.63;1.23;;;;;;;20.16;48.81;99140.78;4954138;29;20058;-49
2022/07/13 01:49:34;;;;;;;2.92;1.25;;;;;;;20.12;49.01;99150.34;4953830;28;20031;-49
2022/07/13 01:51:59;;;;;;;8.50;1.50;;;;;;;20.10;49.03;99145.28;4954022;28;20110;-49
2022/07/13 01:54:25;;;;;;;1.75;1.33;;;;;;;20.02;49.26;99156.41;4954083;29;20031;-50
2022/07/13 01:56:50;;;;;;;3.50;1.42;;;;;;;20.07;49.28;99148.44;4952684;29;20110;-49
2022/07/13 01:59:16;;;;;;;6.85;2.35;;;;;;;20.27;49.38;99153.16;4954000;29;20031;-49
2022/07/13 02:01:42;;;;;;;6.60;1.83;;;;;;;20.58;48.26;99145.44;4952677;29;20020;-49
2022/07/13 02:04:07;;;;;;;7.63;2.13;;;;;;;20.73;48.03;99139.47;4953985;28;20031;-49
2022/07/13 02:06:33;;;;;;;7.95;1.77;;;;;;;20.83;47.51;99150.19;4952560;29;20027;-49
2022/07/13 02:08:58;;;;;;;3.53;1.27;;;;;;;20.73;47.41;99145.59;4953885;28;20039;-49
2022/07/13 02:11:24;;;;;;;6.03;1.42;;;;;;;20.41;47.91;99145.56;4953868;28;20062;-49
2022/07/13 02:13:50;;;;;;;2.55;1.50;;;;;;;20.22;48.46;99149.66;4952557;29;20626;-49
2022/07/13 02:16:16;;;;;;;2.00;1.27;;;;;;;20.04;48.87;99146.31;4952471;29;20118;-49
2022/07/13 02:18:42;;;;;;;7.13;1.60;;;;;;;19.81;49.22;99149.22;4953742;28;20027;-49
2022/07/13 02:21:12;;;;;;;3.80;1.20;;;;;;;19.53;50.11;99149.13;4953793;28;20027;-49
2022/07/13 02:23:39;;;;;;;8.05;1.50;;;;;;;19.25;50.81;99151.97;4953731;28;20028;-49
2022/07/13 02:26:04;;;;;;;3.78;1.58;;;;;;;19.18;51.03;99138.06;4952315;29;20397;-49
2022/07/13 02:28:30;;;;;;;4.00;1.33;;;;;;;19.26;50.97;99137.63;4953846;29;20027;-50
2022/07/13 02:30:56;;;;;;;3.22;1.70;;;;;;;19.18;51.01;99149.50;4952329;29;20573;-49
2022/07/13 02:33:21;;;;;;;4.95;1.40;;;;;;;19.08;51.36;99142.16;4953637;28;20027;-49
2022/07/13 02:35:47;;;;;;;3.80;1.25;;;;;;;18.89;51.76;99144.28;4952221;29;20405;-49
2022/07/13 02:38:16;;;;;;;4.28;1.80;;;;;;;18.73;52.32;99145.88;4952308;29;20042;-49
2022/07/13 02:40:41;;;;;;;2.35;1.30;;;;;;;18.63;52.50;99140.38;4953277;28;20044;-49
2022/07/13 02:43:07;;;;;;;4.35;1.30;;;;;;;18.55;52.68;99144.28;4953549;29;20031;-49
2022/07/13 02:45:33;;;;;;;1.77;1.27;;;;;;;18.70;53.04;99148.22;4953361;28;20487;-49
2022/07/13 02:48:02;;;;;;;4.28;1.45;;;;;;;18.82;52.48;99142.84;4953543;28;20098;-49
2022/07/13 02:50:27;;;;;;;2.63;1.13;;;;;;;18.86;52.19;99147.44;4953456;28;20538;-49
2022/07/13 02:52:53;;;;;;;4.68;1.58;;;;;;;18.98;52.22;99151.88;4952168;29;20035;-49
2022/07/13 02:55:19;;;;;;;1.98;1.23;;;;;;;18.95;52.04;99153.13;4953456;28;20028;-49
2022/07/13 02:57:46;;;;;;;3.33;1.80;;;;;;;18.84;51.94;99157.50;4953374;28;20043;-49
2022/07/13 03:00:12;;;;;;;2.40;2.17;;;;;;;18.77;52.28;99152.34;4953353;29;20044;-49
2022/07/13 03:02:38;;;;;;;5.57;1.70;;;;;;;18.84;52.03;99160.16;4954793;28;20024;-49
2022/07/13 03:05:04;;;;;;;2.90;1.38;;;;;;;18.80;51.83;99156.38;4955671;29;20106;-49
2022/07/13 03:07:30;;;;;;;14.18;2.15;;;;;;;18.65;52.46;99156.09;4956883;28;20098;-49
2022/07/13 03:09:57;;;;;;;8.73;2.10;;;;;;;18.56;52.72;99155.69;4955632;29;20474;-49
2022/07/13 03:12:25;;;;;;;3.88;1.63;;;;;;;18.58;53.17;99150.16;4956915;28;20052;-49
2022/07/13 03:14:51;;;;;;;1.88;1.45;;;;;;;18.66;52.97;99157.72;4956924;29;20086;-49
2022/07/13 03:17:16;;;;;;;5.05;1.42;;;;;;;18.59;52.75;99160.53;4956774;28;20023;-49
2022/07/13 03:19:42;;;;;;;5.43;1.40;;;;;;;18.45;53.39;99161.88;4956785;28;20027;-49
2022/07/13 03:22:08;;;;;;;5.35;1.70;;;;;;;18.26;53.57;99158.66;4955382;29;20024;-49
2022/07/13 03:24:34;;;;;;;7.90;2.00;;;;;;;18.20;53.90;99162.25;4956580;28;20027;-49
2022/07/13 03:27:00;;;;;;;4.70;1.52;;;;;;;18.27;53.63;99162.91;4955297;29;20494;-49
2022/07/13 03:29:26;;;;;;;7.05;1.80;;;;;;;18.30;53.58;99154.47;4955266;29;20027;-49
2022/07/13 03:31:52;;;;;;;4.10;1.30;;;;;;;18.38;53.03;99158.59;4956533;28;20042;-49
2022/07/13 03:34:18;;;;;;;2.90;1.60;;;;;;;18.42;52.65;99155.22;4955266;29;20024;-49
2022/07/13 03:36:43;;;;;;;4.45;1.65;;;;;;;18.50;52.87;99161.97;4956423;28;20035;-49
2022/07/13 03:39:09;;;;;;;4.47;1.70;;;;;;;18.62;52.41;99160.06;4955132;29;20026;-49
2022/07/13 03:41:36;;;;;;;5.47;1.40;;;;;;;18.69;52.57;99159.88;4954811;29;20131;-49
2022/07/13 03:44:01;;;;;;;2.08;1.30;;;;;;;18.70;52.21;99158.84;4956357;28;20089;-50
2022/07/13 03:46:27;;;;;;;6.13;1.58;;;;;;;18.76;52.16;99157.88;4954899;29;20031;-49
2022/07/13 03:48:53;;;;;;;5.20;2.00;;;;;;;18.76;52.01;99152.56;4955008;29;20034;-49
2022/07/13 03:51:18;;;;;;;2.85;1.88;;;;;;;18.74;51.86;99157.31;4954921;29;20034;-50
2022/07/13 03:53:44;;;;;;;5.65;1.70;;;;;;;18.43;52.59;99151.53;4954848;29;20069;-49
2022/07/13 03:56:10;;;;;;;2.47;1.45;;;;;;;18.17;53.50;99153.72;4954849;29;20027;-49
2022/07/13 03:58:35;;;;;;;1.98;1.42;;;;;;;18.00;54.09;99158.19;4954795;29;20552;-49
2022/07/13 04:01:01;;;;;;;5.25;1.63;;;;;;;18.02;54.02;99160.59;4956000;28;20034;-48
2022/07/13 04:03:27;;;;;;;5.22;2.28;;;;;;;18.11;53.67;99162.66;4956008;28;20501;-49
2022/07/13 04:05:52;;;;;;;8.55;1.80;;;;;;;18.15;53.57;99166.44;4955881;28;20482;-49
2022/07/13 04:08:18;;;;;;;4.57;1.85;;;;;;;18.13;53.49;99168.53;4955918;29;20027;-48
2022/07/13 04:10:44;;;;;;;2.17;1.30;;;;;;;18.16;53.26;99173.34;4956094;28;20039;-49
2022/07/13 04:13:10;;;;;;;7.93;1.45;;;;;;;18.15;53.59;99170.94;4955529;28;20537;-49
2022/07/13 04:15:35;;;;;;;3.90;1.83;;;;;;;18.07;53.76;99171.31;4954396;29;20031;-49
2022/07/13 04:18:01;;;;;;;3.83;1.55;;;;;;;18.02;54.06;99172.03;4954429;29;20031;-48
2022/07/13 04:20:27;;;;;;;3.75;1.80;;;;;;;18.15;53.70;99169.09;4955650;28;20034;-47
2022/07/13 04:22:52;;;;;;;5.13;1.58;;;;;;;18.30;53.21;99171.22;4955646;29;20545;-47
2022/07/13 04:25:18;;;;;;;11.40;2.63;;;;;;;18.15;53.56;99170.94;4955563;28;20585;-47
2022/07/13 04:27:43;;;;;;;4.68;1.65;;;;;;;18.01;53.99;99174.91;4954269;29;20042;-47
2022/07/13 04:30:09;;;;;;;7.78;2.15;;;;;;;17.91;54.69;99175.53;4954214;29;20035;-47
2022/07/13 04:32:35;;;;;;;5.75;2.10;;;;;;;17.84;54.92;99174.88;4955483;28;20050;-47
2022/07/13 04:35:01;;;;;;;4.22;1.88;;;;;;;18.01;54.85;99181.06;4955432;28;20505;-47
2022/07/13 04:37:26;;;;;;;4.22;1.60;;;;;;;19.00;52.63;99179.03;4954119;29;20046;-47
2022/07/13 04:39:52;;;;;;;4.38;2.08;;;;;;;20.10;49.38;99176.44;4954045;29;20023;-49
2022/07/13 04:42:18;;;;;;;4.82;1.90;;;;;;;20.69;47.63;99183.72;4955087;28;20059;-49
2022/07/13 04:44:43;;;;;;;4.85;1.85;;;;;;;20.83;46.89;99173.41;4953899;29;20050;-49
2022/07/13 04:47:09;;;;;;;8.95;2.00;;;;;;;20.84;46.86;99181.13;4953874;29;20034;-49
2022/07/13 04:49:34;;;;;;;4.43;1.70;;;;;;;20.83;46.73;99184.09;4953822;29;20565;-49
2022/07/13 04:52:00;;;;;;;5.70;2.08;;;;;;;20.88;47.08;99184.09;4953807;29;20035;-49
2022/07/13 04:54:26;;;;;;;9.27;2.67;;;;;;;21.12;46.68;99184.53;4953720;29;20027;-49
2022/07/13 04:56:51;;;;;;;5.40;2.00;;;;;;;21.38;46.17;99179.38;4955028;28;20402;-49
2022/07/13 04:59:17;;;;;;;16.00;2.42;;;;;;;21.84;45.45;99184.94;4954927;28;20409;-49
2022/07/13 05:01:43;;;;;;;3.70;1.63;;;;;;;22.31;44.14;99189.34;4954856;28;20027;-48
2022/07/13 05:04:09;;;;;;;7.55;2.00;;;;;;;22.81;42.57;99189.66;4954884;28;20031;-49
2022/07/13 05:06:34;;;;;;;7.93;2.17;;;;;;;23.28;41.33;99186.69;4954686;28;20532;-49
2022/07/13 05:09:01;;;;;;;4.40;2.17;;;;;;;23.63;40.55;99195.69;4954767;29;20120;-49
2022/07/13 05:11:26;;;;;;;3.13;1.98;;;;;;;23.73;39.94;99192.97;4954686;28;20066;-49
2022/07/13 05:13:53;;;;;;;7.45;2.00;;;;;;;23.99;39.60;99194.75;4953392;29;20199;-48
2022/07/13 05:16:19;;;;;;;9.75;2.65;;;;;;;24.68;38.51;99196.47;4953279;29;20121;-49
2022/07/13 05:18:45;;;;;;;7.55;2.40;;;;;;;25.61;37.06;99193.69;4954903;29;20106;-47
2022/07/13 05:21:11;;;;;;;10.20;2.03;;;;;;;26.02;36.23;99195.91;4954491;28;20034;-47
2022/07/13 05:23:37;;;;;;;4.75;2.17;;;;;;;26.35;35.57;99197.88;4954773;28;20023;-47
2022/07/13 05:26:04;;;;;;;3.70;2.15;;;;;;;26.87;34.72;99202.16;4968567;28;20031;-48
2022/07/13 05:28:31;;;;;;;13.63;2.83;;;;;;;27.85;33.39;99201.16;4954481;28;20493;-47
2022/07/13 05:30:57;;;;;;;4.82;2.10;;;;;;;28.29;32.60;99205.09;4954431;28;20024;-49
2022/07/13 05:33:22;;;;;;;12.40;2.90;;;;;;;29.05;31.72;99198.13;4954621;28;20405;-50
2022/07/13 05:35:50;;;;;;;4.03;2.00;;;;;;;29.72;30.13;99191.75;4953053;29;20031;-50
2022/07/13 05:38:15;;;;;;;9.55;2.40;;;;;;;29.89;29.84;99190.19;4954357;28;20499;-50
2022/07/13 05:40:41;;;;;;;5.93;1.98;;;;;;;30.02;29.80;99191.94;4957763;28;20179;-49
2022/07/13 05:43:07;;;;;;;6.30;2.63;;;;;;;30.02;29.62;99189.22;4953000;29;20047;-50
2022/07/13 05:45:33;;;;;;;12.65;2.50;;;;;;;30.33;29.50;99194.53;4954064;29;20097;-50
2022/07/13 05:47:59;;;;;;;10.40;1.95;;;;;;;30.93;28.30;99189.34;4952882;29;20027;-50
2022/07/13 05:50:25;;;;;;;6.00;1.80;;;;;;;30.88;27.95;99187.63;4954112;28;20117;-49
2022/07/13 05:52:51;;;;;;;9.27;2.72;;;;;;;30.81;28.37;99193.50;4952785;29;20564;-50
2022/07/13 05:55:17;;;;;;;6.00;2.42;;;;;;;30.83;28.13;99196.69;4954015;28;20039;-50
2022/07/13 05:57:44;;;;;;;10.50;2.47;;;;;;;30.97;28.09;99196.53;4953986;28;20019;-50
2022/07/13 06:00:13;;;;;;;11.43;2.33;;;;;;;31.54;27.76;99206.22;4953959;28;20540;-50
2022/07/13 06:02:40;;;;;;;16.88;3.53;;;;;;;32.49;26.49;99209.38;4953936;28;20098;-51
2022/07/13 06:05:06;;;;;;;55.25;5.32;;;;;;;33.35;25.73;99212.34;4954133;28;20031;-51
2022/07/13 06:07:32;;;;;;;13.50;2.92;;;;;;;34.11;24.26;99204.56;4953871;28;20033;-47
2022/07/13 06:10:00;;;;;;;14.07;3.42;;;;;;;34.63;23.81;99208.34;4953893;28;20054;-48
2022/07/13 06:12:26;;;;;;;13.77;3.35;;;;;;;34.90;23.32;99208.72;4954421;28;20059;-48
2022/07/13 06:14:54;;;;;;;13.82;3.55;;;;;;;34.75;22.95;99211.06;4953793;28;20521;-49
2022/07/13 06:17:23;;;;;;;12.38;2.80;;;;;;;34.79;23.41;99211.16;4952419;29;20063;-48
2022/07/13 06:19:49;;;;;;;13.70;2.30;;;;;;;35.44;22.73;99212.75;4952561;29;20039;-49
2022/07/13 06:22:16;;;;;;;10.63;3.35;;;;;;;35.90;22.11;99216.59;4952411;29;20035;-48
2022/07/13 06:24:42;;;;;;;13.35;2.40;;;;;;;36.56;21.12;99220.28;4953563;28;20041;-49
2022/07/13 06:27:08;;;;;;;10.13;3.00;;;;;;;37.07;20.49;99215.75;4953677;28;20497;-49
2022/07/13 06:29:34;;;;;;;17.63;3.30;;;;;;;37.55;19.95;99213.38;4953690;28;20031;-48
2022/07/13 06:32:00;;;;;;;12.35;2.90;;;;;;;37.87;19.85;99229.50;4953658;28;20098;-48
2022/07/13 06:34:26;;;;;;;57.97;7.18;;;;;;;38.12;19.66;99218.91;4953593;28;20485;-47
2022/07/13 06:36:51;;;;;;;42.15;5.30;;;;;;;38.59;18.92;99220.25;4955571;28;20517;-47
2022/07/13 06:39:17;;;;;;;30.30;4.88;;;;;;;39.22;18.49;99220.44;4956247;29;20058;-47
2022/07/13 06:41:45;;;;;;;120.28;11.57;;;;;;;39.61;18.01;99218.00;4955915;29;20047;-47
2022/07/13 06:44:11;;;;;;;65.22;7.80;;;;;;;39.66;17.30;99211.34;4957345;28;20185;-49
2022/07/13 06:46:37;;;;;;;20.13;2.53;;;;;;;39.52;17.43;99220.28;4957287;28;20111;-49
2022/07/13 06:49:03;;;;;;;38.97;4.15;;;;;;;39.99;17.04;99220.59;4956324;29;20122;-49
2022/07/13 06:51:28;;;;;;;24.67;3.40;;;;;;;39.85;17.03;99218.53;4955990;28;20105;-51
2022/07/13 06:53:55;;;;;;;39.47;4.43;;;;;;;39.74;17.62;99216.53;4957283;29;20193;-51
2022/07/13 06:56:21;;;;;;;16.27;2.22;;;;;;;39.64;17.41;99225.47;4957245;28;20043;-47
2022/07/13 06:58:47;;;;;;;17.52;2.33;;;;;;;39.86;17.32;99212.66;4955944;29;20031;-49
2022/07/13 07:01:13;;;;;;;16.10;2.50;;;;;;;40.33;16.95;99212.91;4955935;29;20034;-49
2022/07/13 07:03:39;;;;;;;8.43;2.20;;;;;;;40.50;16.68;99219.59;4955805;29;20023;-48
2022/07/13 07:06:05;;;;;;;12.05;2.00;;;;;;;41.02;16.56;99222.06;4956890;28;20034;-50
2022/07/13 07:08:31;;;;;;;6.88;2.25;;;;;;;41.29;16.31;99223.28;4957005;28;20030;-49
2022/07/13 07:11:00;;;;;;;7.80;2.03;;;;;;;41.36;16.08;99232.72;4955632;29;20046;-49
2022/07/13 07:13:25;;;;;;;12.55;2.00;;;;;;;41.28;16.04;99224.44;4956839;28;20034;-48
2022/07/13 07:15:52;;;;;;;10.80;2.35;;;;;;;41.19;16.17;99226.78;4956854;29;20035;-49
2022/07/13 07:18:21;;;;;;;10.40;2.28;;;;;;;40.99;16.42;99220.91;4956889;28;20023;-48
2022/07/13 07:20:48;;;;;;;23.20;3.22;;;;;;;40.68;16.93;99223.19;4956762;28;20030;-49
2022/07/13 07:23:14;;;;;;;7.60;1.88;;;;;;;40.66;16.47;99222.00;4956958;28;20098;-49
2022/07/13 07:25:40;;;;;;;9.23;1.60;;;;;;;40.50;16.51;99225.13;4939468;29;20031;-50
2022/07/13 07:28:07;;;;;;;10.95;2.80;;;;;;;40.46;16.68;99227.84;4955327;29;20370;-48
2022/07/13 07:30:32;;;;;;;7.97;1.67;;;;;;;40.43;16.73;99230.59;4956846;28;20026;-49
2022/07/13 07:32:58;;;;;;;8.48;1.65;;;;;;;40.47;16.45;99231.41;4955315;29;20506;-49
2022/07/13 07:35:23;;;;;;;14.75;2.30;;;;;;;40.31;16.66;99231.75;4955146;29;20090;-48
2022/07/13 07:37:49;;;;;;;7.68;1.70;;;;;;;40.03;17.32;99232.41;4956528;28;20030;-51
2022/07/13 07:40:15;;;;;;;9.35;2.38;;;;;;;39.54;17.03;99231.69;4955079;29;20034;-51
2022/07/13 07:42:41;;;;;;;11.43;1.92;;;;;;;39.28;17.82;99227.16;4956190;28;20047;-50
2022/07/13 07:45:08;;;;;;;4.22;1.45;;;;;;;38.87;18.24;99232.66;4971036;28;20031;-49
2022/07/13 07:47:34;;;;;;;8.50;2.22;;;;;;;38.79;17.85;99228.28;4955750;28;20058;-51
2022/07/13 07:49:59;;;;;;;9.77;1.50;;;;;;;38.80;18.16;99229.84;4954891;29;20123;-48
2022/07/13 07:52:25;;;;;;;7.68;1.50;;;;;;;38.57;18.19;99233.53;4956200;29;20070;-48
2022/07/13 07:54:51;;;;;;;5.57;1.77;;;;;;;38.56;18.06;99231.97;4954838;29;20032;-48
2022/07/13 07:57:17;;;;;;;12.88;1.83;;;;;;;38.66;17.98;99231.31;4954784;29;20034;-50
2022/07/13 07:59:42;;;;;;;14.23;2.50;;;;;;;38.94;17.85;99233.53;4954785;29;20027;-50
2022/07/13 08:02:09;;;;;;;22.20;3.53;;;;;;;39.80;17.30;99236.16;4955962;29;20027;-51
2022/07/13 08:04:35;;;;;;;38.83;7.72;;;;;;;40.65;16.98;99234.97;4954705;29;20027;-51
2022/07/13 08:07:03;;;;;;;34.55;4.85;;;;;;;41.26;16.41;99237.03;4955900;28;20090;-51
2022/07/13 08:09:29;;;;;;;21.73;3.95;;;;;;;41.70;15.82;99224.81;4954624;29;20031;-48
2022/07/13 08:11:55;;;;;;;20.88;2.55;;;;;;;42.45;15.42;99229.28;4955871;28;20078;-48
2022/07/13 08:14:21;;;;;;;30.77;5.88;;;;;;;43.08;14.83;99218.19;4955740;29;20106;-49
2022/07/13 08:16:50;;;;;;;14.48;2.70;;;;;;;42.98;14.49;99227.34;4955747;28;20105;-49
2022/07/13 08:19:16;;;;;;;14.40;2.63;;;;;;;43.04;14.82;99220.97;4955678;28;20521;-54
2022/07/13 08:21:42;;;;;;;25.08;5.90;;;;;;;43.59;14.15;99227.59;4955705;28;20027;-52
2022/07/13 08:24:07;;;;;;;10.27;2.00;;;;;;;43.69;14.53;99214.91;4955685;28;20158;-53
2022/07/13 08:26:33;;;;;;;29.48;7.95;;;;;;;44.14;14.49;99222.28;4955481;29;20034;-53
2022/07/13 08:28:59;;;;;;;11.95;2.08;;;;;;;44.10;13.58;99216.78;4954229;29;20039;-50
2022/07/13 08:31:26;;;;;;;15.52;3.55;;;;;;;44.13;14.05;99221.50;4954214;29;20027;-51
2022/07/13 08:39:24;;;;;;;31.98;7.90;;;;;;;44.19;13.58;99224.56;4955611;29;20027;-54
2022/07/13 08:41:50;;;;;;;57.95;15.65;;;;;;;44.57;13.79;99219.72;4955049;28;20047;-52
2022/07/13 08:44:16;;;;;;;17.08;2.85;;;;;;;44.64;13.32;99222.38;4955257;28;20062;-54
2022/07/13 08:46:42;;;;;;;30.60;10.77;;;;;;;44.71;13.42;99220.69;4955084;28;20151;-53
2022/07/13 08:49:09;;;;;;;62.70;12.88;;;;;;;44.91;13.75;99220.81;4955194;28;20038;-53
2022/07/13 08:51:35;;;;;;;36.75;13.73;;;;;;;45.28;15.29;99225.34;4955136;28;20075;-52
2022/07/13 08:54:07;;;;;;;32.22;9.13;;;;;;;45.37;14.30;99217.25;4955057;28;20028;-53
2022/07/13 08:56:33;;;;;;;17.15;2.65;;;;;;;45.15;13.52;99216.81;4953882;29;20545;-50
2022/07/13 08:59:02;;;;;;;17.45;4.72;;;;;;;45.28;14.38;99217.03;4954697;28;20147;-52
2022/07/13 09:01:27;;;;;;;48.03;9.68;;;;;;;45.09;14.00;99221.28;4952964;29;20024;-51
2022/07/13 09:03:53;;;;;;;44.50;5.65;;;;;;;45.09;13.68;99221.28;4955144;29;20405;-53
2022/07/13 09:06:44;;;;;;;51.72;8.18;;;;;;;45.54;13.29;99226.47;4954643;28;20023;-50
2022/07/13 09:09:38;;;;;;;22.45;5.00;;;;;;;45.94;12.84;99225.69;4953528;29;20110;-50
2022/07/13 09:12:25;;;;;;;14.88;2.22;;;;;;;45.92;12.68;99228.88;4953423;29;20086;-51
2022/07/13 09:14:56;;;;;;;32.42;4.70;;;;;;;45.85;12.74;99229.81;4953402;29;20043;-52
2022/07/13 09:17:43;;;;;;;15.65;2.28;;;;;;;45.95;12.62;99221.72;4953447;29;20067;-50
2022/07/13 09:20:09;;;;;;;11.02;1.58;;;;;;;46.11;12.10;99226.56;4954897;28;20460;-54
2022/07/13 09:22:53;;;;;;;12.25;1.70;;;;;;;46.22;12.26;99224.31;5094445;27;1693291;-51
2022/07/13 09:25:37;;;;;;;15.13;1.90;;;;;;;46.33;12.15;99221.34;5128899;28;20093;-52
2022/07/13 09:35:43;;;;;;;9.68;2.00;;;;;;;46.11;12.39;99221.78;5128932;28;20031;-52
2022/07/13 09:38:26;;;;;;;10.85;1.90;;;;;;;46.31;12.04;99215.44;5129868;27;20031;-51
2022/07/13 09:40:52;;;;;;;12.02;2.55;;;;;;;46.76;11.93;99225.91;5128578;28;20144;-52
2022/07/13 09:46:11;;;;;;;13.80;1.98;;;;;;;46.47;11.74;99231.34;5129768;28;20080;-51
2022/07/13 09:48:38;;;;;;;16.08;2.28;;;;;;;46.38;12.09;99226.34;5129686;27;20031;-50
2022/07/13 09:51:09;;;;;;;20.60;3.13;;;;;;;46.58;11.89;99229.09;5128317;28;20047;-52
2022/07/13 09:53:37;;;;;;;15.52;4.68;;;;;;;46.35;12.07;99232.78;5129690;27;20480;-49
2022/07/13 09:56:05;;;;;;;11.65;2.70;;;;;;;46.35;12.01;99228.00;5129503;27;20016;-49
2022/07/13 09:58:37;;;;;;;10.10;2.53;;;;;;;46.74;11.83;99225.56;5129757;27;20030;-49
2022/07/13 10:04:02;;;;;;;13.25;2.30;;;;;;;46.65;11.63;99231.72;5121384;27;20096;-52
2022/07/13 10:06:31;;;;;;;15.95;2.85;;;;;;;46.34;12.02;99226.44;5129384;27;20019;-51
2022/07/13 10:08:58;;;;;;;8.15;1.75;;;;;;;46.00;12.08;99223.97;5127957;28;20492;-52
2022/07/13 10:11:25;;;;;;;9.13;1.77;;;;;;;45.74;12.08;99229.28;5129267;27;20035;-49
2022/07/13 10:13:51;;;;;;;10.40;2.40;;;;;;;45.56;12.35;99226.81;5129471;27;20028;-50
2022/07/13 10:16:17;;;;;;;4.50;1.48;;;;;;;45.38;12.62;99220.81;5129185;27;20489;-50
2022/07/13 10:18:44;;;;;;;14.23;2.10;;;;;;;45.71;12.39;99221.03;5129250;27;20568;-50
2022/07/13 10:21:19;;;;;;;17.02;2.25;;;;;;;45.95;12.34;99216.94;5128798;27;20055;-49
2022/07/13 10:23:45;;;;;;;13.68;1.88;;;;;;;45.99;12.11;99219.66;5110652;28;20038;-51
2022/07/13 10:26:25;;;;;;;45.35;4.32;;;;;;;45.93;12.40;99219.38;5110496;28;20027;-52
2022/07/13 10:29:46;;;;;;;10.63;1.70;;;;;;;45.98;12.25;99221.66;5110489;28;20031;-51
2022/07/13 10:32:30;;;;;;;;;;;;;;;;;;;;;
2022/07/13 10:35:09;;;;;;;9.40;1.80;;;;;;;46.01;11.47;99220.78;5075401;27;20036;-52
2022/07/13 10:37:56;;;;;;;21.45;3.47;;;;;;;46.17;11.63;99217.31;5115092;28;20085;-52
2022/07/13 10:40:29;;;;;;;5.28;1.20;;;;;;;46.38;11.28;99220.81;5115268;28;20458;-52
2022/07/13 10:42:59;;;;;;;;;;;;;;;46.78;11.28;99218.69;5115359;28;20043;-52
2022/07/13 10:45:35;;;;;;;19.02;2.85;;;;;;;46.56;10.64;99226.75;5114979;28;19915;-52
2022/07/13 10:48:13;;;;;;;10.35;1.20;;;;;;;46.28;9.97;99222.59;5114964;28;20027;-52
2022/07/13 10:51:09;;;;;;;20.23;3.17;;;;;;;46.07;10.08;99218.31;5114881;28;20031;-52
2022/07/13 10:53:37;;;;;;;14.30;1.55;;;;;;;46.27;10.01;99221.06;5114606;28;20031;-52
2022/07/13 10:56:04;;;;;;;8.68;1.40;;;;;;;46.28;9.97;99216.28;5114702;28;20508;-52
2022/07/13 10:58:33;;;;;;;9.65;1.20;;;;;;;46.40;9.97;99226.72;5114960;28;20396;-51
2022/07/13 11:00:59;;;;;;;9.82;2.20;;;;;;;46.63;10.01;99214.72;5114579;28;20024;-50
2022/07/13 11:03:28;;;;;;;13.23;1.73;;;;;;;46.46;10.18;99216.69;5114809;28;20031;-49
2022/07/13 11:06:24;;;;;;;16.27;2.15;;;;;;;46.11;10.69;99213.47;5113178;28;20093;-49
2022/07/13 11:09:13;;;;;;;28.15;3.20;;;;;;;45.64;11.03;99217.19;5097464;28;20040;-51
2022/07/13 11:11:53;;;;;;;3.53;0.93;;;;;;;45.27;11.39;99207.16;5114474;28;20477;-52
2022/07/13 11:14:41;;;;;;;8.20;2.13;;;;;;;45.04;11.94;99203.16;5114348;28;20493;-52
2022/07/13 11:17:20;;;;;;;3.35;1.20;;;;;;;45.19;11.52;99202.91;5114318;28;20024;-50
2022/07/13 11:20:09;;;;;;;8.32;1.10;;;;;;;45.43;11.42;99204.47;5114319;28;20019;-51
2022/07/13 11:25:36;;;;;;;8.38;2.90;;;;;;;45.53;11.23;99201.94;5114496;28;20081;-51
2022/07/13 11:28:25;;;;;;;11.15;1.55;;;;;;;45.41;11.33;99206.88;5095803;28;20465;-51
2022/07/13 11:30:55;;;;;;;7.30;1.30;;;;;;;45.34;11.05;99201.50;5114038;28;20047;-51
2022/07/13 11:33:21;;;;;;;17.95;3.30;;;;;;;45.22;11.63;99197.31;5114007;28;20024;-51
2022/07/13 11:35:47;;;;;;;7.47;1.40;;;;;;;45.05;11.41;99193.63;5113945;28;20103;-51
2022/07/13 11:38:15;;;;;;;14.90;3.50;;;;;;;45.02;11.45;99190.94;5113869;28;20572;-51
2022/07/13 11:40:41;;;;;;;8.57;1.30;;;;;;;44.88;11.16;99194.75;5095460;28;20050;-52
2022/07/13 11:43:08;;;;;;;13.73;1.52;;;;;;;45.01;11.45;99184.59;5113704;28;20028;-51
2022/07/13 11:45:34;;;;;;;10.80;1.73;;;;;;;45.33;11.08;99183.28;5112785;28;20024;-49
2022/07/13 11:48:05;;;;;;;10.00;1.40;;;;;;;45.26;11.16;99180.66;5095418;28;20114;-51
2022/07/13 11:50:44;;;;;;;17.90;1.90;;;;;;;45.22;10.94;99183.47;5113712;28;20043;-52
2022/07/13 11:53:24;;;;;;;8.48;1.27;;;;;;;45.35;10.53;99185.63;5113516;28;20034;-51
2022/07/13 11:55:50;;;;;;;11.38;1.38;;;;;;;45.54;10.41;99184.88;5113562;28;20386;-52
2022/07/13 11:58:45;;;;;;;17.90;2.08;;;;;;;45.62;10.80;99188.25;5095234;28;20398;-51